Time;durP1;ratioP1;P1;durP2;ratioP2;P2;SDS_P1;SDS_P2;PMS_P1;PMS_P2;Temp;Humidity;BMP_temperature;BMP_pressure;BME280_temperature;BME280_humidity;BME280_pressure;Samples;Min_cycle;Max_cycle;Signal;HPM_P1;HPM_P2
2023/02/23 00:01:22;;;;;;;62.22;20.90;;;8.00;99.90;;;;;;4967396;28;20035;-74
2023/02/23 00:03:49;;;;;;;62.83;22.52;;;8.00;99.90;;;;;;4968325;28;20126;-73
2023/02/23 00:06:17;;;;;;;57.13;22.38;;;8.00;99.90;;;;;;4987078;28;20228;-73
2023/02/23 00:08:43;;;;;;;58.28;19.30;;;8.00;99.90;;;;;;4992946;28;20038;-74
2023/02/23 00:11:13;;;;;;;61.13;21.63;;;8.10;99.90;;;;;;4966225;28;20050;-73
2023/02/23 00:13:40;;;;;;;63.08;21.20;;;8.00;99.90;;;;;;4968130;28;20124;-73
2023/02/23 00:16:12;;;;;;;57.50;20.80;;;8.00;99.90;;;;;;4968121;28;20046;-73
2023/02/23 00:18:47;;;;;;;60.72;22.58;;;8.00;99.90;;;;;;4986966;28;20043;-74
2023/02/23 00:21:33;;;;;;;64.53;21.30;;;8.00;99.90;;;;;;4982006;28;20038;-74
2023/02/23 00:24:02;;;;;;;60.83;21.67;;;8.00;99.90;;;;;;4985935;28;20037;-74
2023/02/23 00:26:33;;;;;;;59.55;21.60;;;8.00;99.90;;;;;;4971016;28;20690;-74
2023/02/23 00:29:12;;;;;;;62.75;23.00;;;8.00;99.90;;;;;;4968231;28;20704;-73
2023/02/23 00:31:43;;;;;;;62.28;20.45;;;8.00;99.90;;;;;;4985356;28;20047;-74
2023/02/23 00:34:09;;;;;;;;;;;8.10;99.90;;;;;;4968205;28;20054;-73
2023/02/23 00:36:35;;;;;;;64.43;22.05;;;8.00;99.90;;;;;;4986605;28;19914;-72
2023/02/23 00:39:20;;;;;;;60.83;21.15;;;8.00;99.90;;;;;;4988560;28;20057;-74
2023/02/23 00:41:48;;;;;;;55.22;20.23;;;8.00;99.90;;;;;;4989793;28;20034;-74
2023/02/23 00:44:14;;;;;;;67.70;23.10;;;8.00;99.90;;;;;;4971079;28;20042;-75
2023/02/23 00:46:42;;;;;;;66.85;22.52;;;8.00;99.90;;;;;;4995835;28;20080;-73
2023/02/23 00:49:09;;;;;;;59.85;21.30;;;8.00;99.90;;;;;;4971295;28;20053;-72
2023/02/23 00:51:36;;;;;;;59.70;20.80;;;8.00;99.90;;;;;;4972001;28;20030;-74
2023/02/23 00:54:10;;;;;;;53.88;19.65;;;8.00;99.90;;;;;;4971832;28;20537;-73
2023/02/23 00:56:37;;;;;;;61.28;22.55;;;8.00;99.90;;;;;;4988537;28;20085;-73
2023/02/23 00:59:02;;;;;;;59.45;20.92;;;8.00;99.90;;;;;;4988836;28;20096;-73
2023/02/23 01:01:28;;;;;;;60.40;21.10;;;8.00;99.90;;;;;;4987996;28;20152;-73
2023/02/23 01:03:53;;;;;;;54.28;20.83;;;8.00;99.90;;;;;;4971264;28;20049;-74
2023/02/23 01:06:19;;;;;;;56.13;21.27;;;8.00;99.90;;;;;;4987676;28;20541;-73
2023/02/23 01:08:50;;;;;;;57.28;20.77;;;8.00;99.90;;;;;;4988815;28;20053;-72
2023/02/23 01:11:21;;;;;;;53.30;18.80;;;8.00;99.90;;;;;;5003035;28;20038;-75
2023/02/23 01:13:47;;;;;;;58.83;19.55;;;8.00;99.90;;;;;;4988616;28;20795;-73
2023/02/23 01:16:15;;;;;;;52.30;19.92;;;8.00;99.90;;;;;;4970323;28;20105;-73
2023/02/23 01:18:45;;;;;;;50.72;19.95;;;8.00;99.90;;;;;;4987830;28;20038;-73
2023/02/23 01:21:21;;;;;;;59.65;21.00;;;8.10;99.90;;;;;;4970682;28;20042;-73
2023/02/23 01:23:48;;;;;;;51.35;19.65;;;8.10;99.90;;;;;;4988625;28;20120;-73
2023/02/23 01:26:22;;;;;;;61.67;21.85;;;8.00;99.90;;;;;;4990713;28;20042;-73
2023/02/23 01:28:56;;;;;;;60.53;19.88;;;8.00;99.90;;;;;;4967351;28;20403;-71
2023/02/23 01:31:23;;;;;;;53.90;19.13;;;8.00;99.90;;;;;;4988522;28;20117;-75
2023/02/23 01:33:54;;;;;;;59.78;20.77;;;8.00;99.90;;;;;;4988443;28;20483;-74
2023/02/23 01:36:19;;;;;;;;;;;8.00;99.90;;;;;;4967037;28;20061;-75
2023/02/23 01:38:45;;;;;;;56.30;21.00;;;8.00;99.90;;;;;;4992509;28;19914;-73
2023/02/23 01:41:11;;;;;;;56.47;19.15;;;8.00;99.90;;;;;;4970150;28;20046;-73
2023/02/23 01:44:03;;;;;;;58.15;20.65;;;8.00;99.90;;;;;;4969968;28;20042;-74
2023/02/23 01:46:33;;;;;;;56.50;19.42;;;8.10;99.90;;;;;;4985082;28;20050;-74
2023/02/23 01:48:59;;;;;;;59.08;19.98;;;8.00;99.90;;;;;;4995826;28;20038;-73
2023/02/23 01:51:28;;;;;;;62.05;20.52;;;8.10;99.90;;;;;;4968380;28;20043;-73
2023/02/23 01:53:59;;;;;;;53.05;19.17;;;8.00;99.90;;;;;;4970513;28;20034;-74
2023/02/23 01:56:31;;;;;;;60.10;20.20;;;8.10;99.90;;;;;;4987184;28;20117;-72
2023/02/23 01:59:01;;;;;;;52.80;20.48;;;8.10;99.90;;;;;;4995900;28;20717;-73
2023/02/23 02:01:29;;;;;;;55.23;20.47;;;8.00;99.90;;;;;;4990189;28;20042;-75
2023/02/23 02:04:00;;;;;;;54.75;19.98;;;8.00;99.90;;;;;;4970308;28;20277;-73
2023/02/23 02:06:27;;;;;;;53.55;19.45;;;8.00;99.90;;;;;;4986822;28;20173;-73
2023/02/23 02:09:08;;;;;;;51.25;17.98;;;8.00;99.90;;;;;;4987185;28;20031;-73
2023/02/23 02:11:35;;;;;;;52.97;19.17;;;8.00;99.90;;;;;;4986953;28;20069;-73
2023/02/23 02:14:35;;;;;;;51.90;19.52;;;8.00;99.90;;;;;;4987318;28;20513;-75
2023/02/23 02:17:09;;;;;;;58.70;20.50;;;8.00;99.90;;;;;;4950785;28;20038;-74
2023/02/23 02:19:49;;;;;;;50.42;18.77;;;8.10;99.90;;;;;;4969166;28;20125;-73
2023/02/23 02:22:40;;;;;;;61.28;18.90;;;8.00;99.90;;;;;;4986816;28;20030;-73
2023/02/23 02:25:20;;;;;;;52.13;18.75;;;8.00;99.90;;;;;;4968254;28;20058;-74
2023/02/23 02:28:30;;;;;;;52.80;18.88;;;8.10;99.90;;;;;;4997074;28;20026;-73
2023/02/23 02:31:25;;;;;;;48.58;17.88;;;8.00;99.90;;;;;;4988657;28;20473;-73
2023/02/23 02:34:28;;;;;;;54.58;18.98;;;8.00;99.90;;;;;;4982710;28;20038;-74
2023/02/23 02:37:02;;;;;;;54.05;17.45;;;8.00;99.90;;;;;;4992603;28;20062;-73
2023/02/23 02:39:36;;;;;;;51.92;19.33;;;8.00;99.90;;;;;;4971611;28;20046;-72
2023/02/23 02:42:26;;;;;;;56.63;20.70;;;8.00;99.90;;;;;;4991522;28;20038;-73
2023/02/23 02:45:12;;;;;;;52.05;18.58;;;8.00;99.90;;;;;;4983823;28;20588;-74
2023/02/23 02:47:45;;;;;;;56.45;19.65;;;8.00;99.90;;;;;;4989426;28;20110;-72
2023/02/23 02:50:41;;;;;;;55.17;17.88;;;8.00;99.90;;;;;;4991513;28;20289;-71
2023/02/23 02:53:10;;;;;;;52.17;18.15;;;8.00;99.90;;;;;;4984759;28;20027;-73
2023/02/23 02:55:41;;;;;;;52.50;19.08;;;8.00;99.90;;;;;;4970093;28;20038;-73
2023/02/23 02:58:07;;;;;;;51.90;18.48;;;8.00;99.90;;;;;;4956407;28;20252;-73
2023/02/23 04:18:39;;;;;;;58.03;19.30;;;7.90;99.90;;;;;;4972113;28;20058;-73
2023/02/23 04:21:06;;;;;;;52.88;18.10;;;7.90;99.90;;;;;;4968534;28;20125;-73
2023/02/23 04:23:32;;;;;;;59.92;19.00;;;7.90;99.90;;;;;;4969429;28;20035;-74
2023/02/23 04:25:57;;;;;;;59.40;20.40;;;7.90;99.90;;;;;;4974573;28;20041;-75
2023/02/23 04:28:25;;;;;;;54.30;20.73;;;7.90;99.90;;;;;;4970215;28;20031;-73
2023/02/23 04:30:53;;;;;;;52.47;18.85;;;7.90;99.90;;;;;;4971691;28;20050;-74
2023/02/23 04:33:21;;;;;;;62.50;20.85;;;7.90;99.90;;;;;;4976451;28;20060;-74
2023/02/23 04:35:47;;;;;;;60.55;19.58;;;7.90;99.90;;;;;;4969659;28;20043;-74
2023/02/23 04:38:13;;;;;;;49.30;18.05;;;7.90;99.90;;;;;;4968076;28;20121;-74
2023/02/23 04:40:38;;;;;;;57.45;18.73;;;7.90;99.90;;;;;;4968329;28;20075;-74
2023/02/23 04:43:04;;;;;;;54.50;19.65;;;7.90;99.90;;;;;;4970261;28;20384;-72
2023/02/23 04:45:30;;;;;;;53.28;19.20;;;7.90;99.90;;;;;;4972002;28;20466;-74
2023/02/23 04:47:55;;;;;;;50.13;17.88;;;7.90;99.90;;;;;;4968585;28;20041;-74
2023/02/23 04:50:21;;;;;;;50.50;18.48;;;7.90;99.90;;;;;;4967830;28;20563;-75
2023/02/23 04:52:47;;;;;;;56.22;18.80;;;7.90;99.90;;;;;;4974949;28;20041;-74
2023/02/23 04:55:20;;;;;;;51.70;18.13;;;7.90;99.90;;;;;;4969334;28;20089;-73
2023/02/23 04:57:46;;;;;;;52.42;18.52;;;7.90;99.90;;;;;;4968586;28;20062;-73
2023/02/23 05:00:12;;;;;;;50.38;17.40;;;7.90;99.90;;;;;;4967582;28;20042;-74
2023/02/23 05:02:38;;;;;;;58.38;19.30;;;7.90;99.90;;;;;;4970432;28;20081;-74
2023/02/23 05:05:08;;;;;;;45.78;17.25;;;7.90;99.90;;;;;;4971562;28;20046;-74
2023/02/23 05:07:34;;;;;;;50.75;18.65;;;7.90;99.90;;;;;;5000472;28;20441;-73
2023/02/23 05:10:00;;;;;;;54.53;17.70;;;7.90;99.90;;;;;;4967882;28;20045;-72
2023/02/23 05:12:26;;;;;;;53.70;19.42;;;7.80;99.90;;;;;;4977685;28;20118;-74
2023/02/23 05:14:52;;;;;;;58.38;18.15;;;7.80;99.90;;;;;;4968226;28;20662;-73
2023/02/23 05:17:17;;;;;;;56.42;17.83;;;7.90;99.90;;;;;;4968701;28;20043;-73
2023/02/23 05:19:43;;;;;;;51.53;18.38;;;7.90;99.90;;;;;;4968594;28;20042;-74
2023/02/23 05:22:11;;;;;;;63.15;20.90;;;7.80;99.90;;;;;;4967006;28;20057;-74
2023/02/23 05:24:40;;;;;;;58.22;19.92;;;7.80;99.90;;;;;;4967427;28;20039;-74
2023/02/23 05:27:10;;;;;;;56.38;19.25;;;7.80;99.90;;;;;;4969879;28;20514;-74
2023/02/23 05:29:36;;;;;;;53.75;18.30;;;7.80;99.90;;;;;;4965016;28;20421;-74
2023/02/23 05:32:01;;;;;;;54.30;19.58;;;7.80;99.90;;;;;;4966949;28;20037;-72
2023/02/23 05:34:27;;;;;;;53.38;18.00;;;7.80;99.90;;;;;;4973370;28;20027;-74
2023/02/23 05:36:53;;;;;;;51.03;18.10;;;7.80;99.90;;;;;;4968434;28;20125;-72
2023/02/23 05:39:19;;;;;;;50.38;18.48;;;7.80;99.90;;;;;;4968763;28;20034;-73
2023/02/23 05:41:45;;;;;;;50.08;18.67;;;7.80;99.90;;;;;;4968333;28;20039;-72
2023/02/23 05:44:11;;;;;;;62.13;20.77;;;7.70;99.90;;;;;;4965169;28;20041;-74
2023/02/23 05:46:37;;;;;;;52.15;18.42;;;7.80;99.90;;;;;;4967522;28;20042;-74
2023/02/23 05:49:03;;;;;;;52.13;17.45;;;7.70;99.90;;;;;;4968018;28;20125;-72
2023/02/23 05:51:31;;;;;;;49.63;17.08;;;7.80;99.90;;;;;;4967170;28;20114;-75
2023/02/23 05:53:57;;;;;;;53.55;18.48;;;7.80;99.90;;;;;;4968737;28;20555;-73
2023/02/23 05:56:22;;;;;;;46.38;16.45;;;7.70;99.90;;;;;;4966144;28;20117;-73
2023/02/23 05:58:55;;;;;;;47.53;16.65;;;7.70;99.90;;;;;;4967040;28;20034;-74
2023/02/23 06:01:21;;;;;;;50.28;16.77;;;7.70;99.90;;;;;;4966774;28;20041;-76
2023/02/23 06:03:47;;;;;;;47.80;18.35;;;7.70;99.90;;;;;;4967175;28;20212;-73
2023/02/23 06:06:13;;;;;;;45.08;17.17;;;7.70;99.90;;;;;;4968187;28;20070;-73
2023/02/23 06:08:39;;;;;;;45.35;16.77;;;7.70;99.90;;;;;;4966192;28;20117;-73
2023/02/23 06:11:05;;;;;;;47.53;18.00;;;7.70;99.90;;;;;;4963927;28;20491;-75
2023/02/23 06:13:30;;;;;;;48.60;18.02;;;7.70;99.90;;;;;;4964541;28;20155;-72
2023/02/23 06:15:58;;;;;;;47.33;16.75;;;7.70;99.90;;;;;;4965698;28;20039;-72
2023/02/23 06:18:24;;;;;;;56.17;17.65;;;7.70;99.90;;;;;;4965623;28;20035;-74
2023/02/23 06:20:50;;;;;;;46.65;16.75;;;7.70;99.90;;;;;;4964470;28;20043;-72
2023/02/23 06:23:16;;;;;;;50.10;18.08;;;7.60;99.90;;;;;;4965025;28;20042;-73
2023/02/23 06:25:43;;;;;;;49.50;17.38;;;7.70;99.90;;;;;;4967210;28;20053;-73
2023/02/23 06:28:09;;;;;;;51.67;18.48;;;7.60;99.90;;;;;;4963633;28;20474;-74
2023/02/23 06:30:36;;;;;;;49.42;17.23;;;7.70;99.90;;;;;;4963905;28;20046;-73
2023/02/23 06:33:02;;;;;;;45.20;16.00;;;7.60;99.90;;;;;;4965274;28;20399;-73
2023/02/23 06:35:28;;;;;;;48.55;17.63;;;7.60;99.90;;;;;;4962960;28;20050;-75
2023/02/23 06:37:53;;;;;;;47.38;17.20;;;7.70;99.90;;;;;;4964799;28;20038;-72
2023/02/23 06:40:19;;;;;;;46.60;16.85;;;7.60;99.90;;;;;;4965827;28;20039;-72
2023/02/23 06:42:45;;;;;;;52.38;18.45;;;7.60;99.90;;;;;;4968524;28;20041;-73
2023/02/23 06:45:12;;;;;;;58.50;18.70;;;7.70;99.90;;;;;;4966698;28;20023;-75
2023/02/23 06:47:38;;;;;;;47.30;17.60;;;7.70;99.90;;;;;;4967359;28;20181;-73
2023/02/23 06:50:05;;;;;;;47.47;16.75;;;7.70;99.90;;;;;;4966976;28;20026;-74
2023/02/23 06:52:32;;;;;;;46.63;16.52;;;7.70;99.90;;;;;;4964148;28;20148;-72
2023/02/23 06:54:57;;;;;;;51.53;17.92;;;7.70;99.90;;;;;;4967802;28;20373;-73
2023/02/23 06:57:23;;;;;;;55.50;19.60;;;7.70;99.90;;;;;;4966060;28;20093;-73
2023/02/23 06:59:49;;;;;;;44.63;16.48;;;7.70;99.90;;;;;;4964906;28;20050;-75
2023/02/23 07:02:15;;;;;;;48.50;17.02;;;7.70;99.90;;;;;;4968465;28;20041;-75
2023/02/23 07:04:40;;;;;;;56.55;18.00;;;7.80;99.90;;;;;;4965147;28;20049;-74
2023/02/23 07:07:07;;;;;;;46.40;17.35;;;7.70;99.90;;;;;;4964228;28;20110;-72
2023/02/23 07:09:32;;;;;;;50.33;17.02;;;7.80;99.90;;;;;;4982696;28;20034;-73
2023/02/23 07:11:59;;;;;;;44.13;16.00;;;7.80;99.90;;;;;;4988545;28;20039;-73
2023/02/23 07:14:24;;;;;;;48.85;15.82;;;7.80;99.90;;;;;;4982149;28;20031;-73
2023/02/23 07:16:50;;;;;;;50.92;17.02;;;7.80;99.90;;;;;;4969061;28;20119;-73
2023/02/23 07:19:15;;;;;;;49.10;17.10;;;7.80;99.90;;;;;;4988057;28;20454;-72
2023/02/23 07:21:41;;;;;;;48.60;16.60;;;7.80;99.90;;;;;;5001529;28;20037;-74
2023/02/23 07:24:07;;;;;;;48.75;16.90;;;7.80;99.90;;;;;;4967915;28;20041;-73
2023/02/23 07:26:33;;;;;;;48.35;16.17;;;7.80;99.90;;;;;;4983161;28;20038;-74
2023/02/23 07:28:59;;;;;;;52.85;17.10;;;7.80;99.90;;;;;;4990896;28;20034;-72
2023/02/23 07:31:25;;;;;;;43.17;15.25;;;7.90;99.90;;;;;;4987746;28;20034;-72
2023/02/23 07:33:53;;;;;;;50.97;17.95;;;7.90;99.90;;;;;;4985535;28;20034;-72
2023/02/23 07:36:20;;;;;;;49.72;16.35;;;7.90;99.90;;;;;;4985293;28;20446;-72
2023/02/23 07:38:46;;;;;;;56.17;18.25;;;7.90;99.90;;;;;;4986506;28;20030;-72
2023/02/23 07:41:12;;;;;;;49.70;16.60;;;7.90;99.90;;;;;;4970056;28;20057;-72
2023/02/23 07:43:44;;;;;;;48.85;16.23;;;7.90;99.90;;;;;;4986310;28;20766;-73
2023/02/23 07:46:09;;;;;;;46.40;15.77;;;8.00;99.90;;;;;;4983955;28;20076;-72
2023/02/23 07:48:35;;;;;;;43.40;14.85;;;8.00;99.90;;;;;;4987356;28;20100;-73
2023/02/23 07:51:00;;;;;;;43.67;15.20;;;8.00;99.90;;;;;;4987074;28;20419;-73
2023/02/23 07:53:26;;;;;;;43.13;15.43;;;8.10;99.90;;;;;;4971194;28;20042;-74
2023/02/23 07:56:00;;;;;;;46.25;16.02;;;8.20;99.90;;;;;;4988375;28;20030;-73
2023/02/23 07:58:26;;;;;;;44.33;14.88;;;8.20;99.90;;;;;;4990021;28;20062;-73
2023/02/23 08:00:52;;;;;;;44.58;15.40;;;8.20;99.90;;;;;;4988177;28;20046;-75
2023/02/23 08:03:18;;;;;;;45.47;17.75;;;8.20;99.90;;;;;;4990185;28;20054;-73
2023/02/23 08:05:44;;;;;;;43.70;14.48;;;8.20;99.90;;;;;;4989351;28;20044;-74
2023/02/23 08:08:10;;;;;;;42.42;15.27;;;8.20;99.90;;;;;;4989459;28;20471;-74
2023/02/23 08:10:37;;;;;;;41.30;14.45;;;8.20;99.90;;;;;;4987394;28;20536;-72
2023/02/23 08:13:03;;;;;;;42.38;15.82;;;8.30;99.90;;;;;;4987218;28;20045;-74
2023/02/23 08:15:29;;;;;;;46.78;15.90;;;8.30;99.90;;;;;;4986969;28;20069;-73
2023/02/23 08:17:54;;;;;;;44.30;16.15;;;8.30;99.90;;;;;;4988205;28;20057;-73
2023/02/23 08:20:20;;;;;;;40.90;15.07;;;8.30;99.90;;;;;;4970670;28;20105;-73
2023/02/23 08:22:45;;;;;;;43.40;16.52;;;8.30;99.90;;;;;;4988693;28;20398;-74
2023/02/23 08:25:11;;;;;;;51.65;19.42;;;8.30;99.90;;;;;;5002469;28;20093;-72
2023/02/23 08:27:37;;;;;;;47.72;16.50;;;8.30;99.90;;;;;;4990884;28;20037;-72
2023/02/23 08:30:04;;;;;;;36.78;14.65;;;8.40;99.90;;;;;;4988204;28;20034;-73
2023/02/23 08:32:36;;;;;;;45.55;17.27;;;8.40;99.90;;;;;;4989991;28;20093;-72
2023/02/23 08:35:02;;;;;;;40.42;14.52;;;8.40;99.90;;;;;;4968598;28;20101;-73
2023/02/23 08:37:28;;;;;;;42.95;15.63;;;8.40;99.90;;;;;;4988621;28;20435;-74
2023/02/23 08:39:55;;;;;;;41.10;14.43;;;8.40;99.90;;;;;;4988941;28;20034;-73
2023/02/23 08:42:21;;;;;;;44.03;15.45;;;8.50;99.90;;;;;;4987981;28;20037;-74
2023/02/23 08:44:48;;;;;;;39.15;14.60;;;8.50;99.90;;;;;;4969105;28;20043;-72
2023/02/23 08:47:15;;;;;;;40.47;14.60;;;8.60;99.90;;;;;;4988520;28;20130;-74
2023/02/23 08:49:41;;;;;;;39.63;13.68;;;8.50;99.90;;;;;;4988726;28;20034;-74
2023/02/23 08:52:06;;;;;;;37.35;14.25;;;8.60;99.90;;;;;;4988594;28;20031;-74
2023/02/23 08:54:32;;;;;;;37.63;13.27;;;8.60;99.90;;;;;;4986565;28;20037;-73
2023/02/23 08:56:57;;;;;;;36.28;14.30;;;8.70;99.90;;;;;;4988621;28;20113;-72
2023/02/23 08:59:24;;;;;;;41.67;13.95;;;8.70;99.90;;;;;;4985996;28;20407;-72
2023/02/23 09:01:50;;;;;;;41.60;13.60;;;8.80;99.90;;;;;;4968001;28;20031;-73
2023/02/23 09:04:17;;;;;;;34.22;12.50;;;8.80;99.90;;;;;;4968723;28;20030;-73
2023/02/23 09:06:43;;;;;;;39.85;12.68;;;8.90;99.90;;;;;;4988391;28;20100;-72
2023/02/23 09:09:08;;;;;;;31.05;12.70;;;8.90;99.90;;;;;;4968741;28;20112;-72
2023/02/23 09:11:34;;;;;;;33.72;12.63;;;8.90;99.90;;;;;;5001214;28;20045;-73
2023/02/23 09:14:00;;;;;;;34.85;12.90;;;8.90;99.90;;;;;;4989778;28;20057;-73
2023/02/23 09:16:25;;;;;;;36.78;12.63;;;8.90;99.90;;;;;;4985449;28;20041;-73
2023/02/23 09:18:51;;;;;;;38.00;14.45;;;9.00;99.90;;;;;;4987047;28;20418;-72
2023/02/23 09:21:21;;;;;;;33.78;12.13;;;8.90;99.90;;;;;;4968129;28;20031;-74
2023/02/23 09:23:49;;;;;;;37.77;12.87;;;9.00;99.90;;;;;;4968273;28;20035;-73
2023/02/23 09:26:17;;;;;;;31.67;12.30;;;9.00;99.90;;;;;;4989499;28;20369;-72
2023/02/23 09:28:43;;;;;;;31.05;11.95;;;9.00;99.90;;;;;;4985213;28;20089;-73
2023/02/23 09:31:12;;;;;;;33.30;11.50;;;9.00;99.90;;;;;;4966872;28;20049;-72
2023/02/23 09:33:39;;;;;;;31.88;11.68;;;9.00;99.90;;;;;;4967524;28;20189;-72
2023/02/23 09:36:25;;;;;;;23.83;10.75;;;9.10;99.90;;;;;;4967946;28;20041;-73
2023/02/23 09:38:54;;;;;;;30.98;10.95;;;9.10;99.90;;;;;;4982013;28;20041;-73
2023/02/23 09:41:40;;;;;;;27.38;9.98;;;9.10;99.90;;;;;;4966979;28;20040;-72
2023/02/23 09:44:14;;;;;;;30.90;10.45;;;9.10;99.90;;;;;;4998150;28;20042;-72
2023/02/23 09:46:58;;;;;;;32.50;9.85;;;9.20;99.90;;;;;;4984478;28;20395;-73
2023/02/23 09:49:26;;;;;;;28.08;10.07;;;9.20;99.90;;;;;;4984039;28;20042;-73
2023/02/23 09:51:57;;;;;;;30.25;10.73;;;9.20;99.90;;;;;;4981289;28;20034;-73
2023/02/23 09:54:27;;;;;;;27.92;9.75;;;9.30;99.90;;;;;;4984739;28;20046;-74
2023/02/23 09:56:55;;;;;;;24.38;9.20;;;9.30;99.90;;;;;;4984951;28;20125;-73
2023/02/23 09:59:21;;;;;;;30.40;10.77;;;9.40;99.90;;;;;;4984510;28;20130;-72
2023/02/23 10:01:47;;;;;;;23.52;9.32;;;9.40;99.90;;;;;;4983739;28;20038;-73
2023/02/23 10:04:34;;;;;;;22.38;8.45;;;9.50;99.90;;;;;;4986695;28;20030;-75
2023/02/23 10:07:21;;;;;;;27.48;9.65;;;9.50;99.90;;;;;;4983271;28;20073;-73
2023/02/23 10:09:46;;;;;;;27.25;9.43;;;9.50;99.90;;;;;;4980963;28;20038;-73
2023/02/23 10:12:25;;;;;;;19.38;8.00;;;9.50;99.90;;;;;;4983634;28;20065;-74
2023/02/23 10:15:22;;;;;;;22.15;8.15;;;9.50;99.90;;;;;;4984141;28;20073;-73
2023/02/23 10:18:16;;;;;;;21.20;8.05;;;9.60;99.90;;;;;;4956983;28;20027;-73
2023/02/23 10:20:52;;;;;;;14.60;6.93;;;9.50;99.90;;;;;;4967134;28;20058;-74
2023/02/23 10:23:28;;;;;;;18.60;8.18;;;9.50;99.90;;;;;;4965076;28;20042;-72
2023/02/23 10:25:58;;;;;;;20.05;7.55;;;9.60;99.90;;;;;;4958520;28;20767;-73
2023/02/23 10:28:25;;;;;;;19.17;8.07;;;9.60;99.90;;;;;;4964228;28;20041;-73
2023/02/23 10:30:53;;;;;;;17.48;7.05;;;9.60;99.90;;;;;;4965592;28;20093;-74
2023/02/23 10:33:36;;;;;;;20.30;7.40;;;9.60;99.90;;;;;;4964375;28;20034;-74
2023/02/23 10:36:15;;;;;;;20.38;7.82;;;9.60;99.90;;;;;;4966032;28;20117;-72
2023/02/23 10:38:41;;;;;;;24.95;7.82;;;9.80;99.90;;;;;;4965018;28;20038;-75
2023/02/23 10:41:08;;;;;;;16.92;6.78;;;9.90;99.90;;;;;;4998040;28;20022;-73
2023/02/23 10:43:34;;;;;;;16.10;5.78;;;9.90;99.90;;;;;;4966466;28;20038;-72
2023/02/23 10:46:00;;;;;;;16.15;7.38;;;9.90;99.90;;;;;;4964451;28;20492;-74
2023/02/23 10:48:30;;;;;;;17.02;5.50;;;9.90;99.90;;;;;;4965427;28;20035;-74
2023/02/23 10:51:01;;;;;;;14.50;5.68;;;10.00;99.90;;;;;;4961008;28;20822;-73
2023/02/23 10:53:34;;;;;;;13.93;5.22;;;10.00;99.90;;;;;;4964557;28;20042;-73
2023/02/23 10:56:14;;;;;;;16.27;6.38;;;10.00;99.90;;;;;;4997894;28;20154;-73
2023/02/23 10:58:47;;;;;;;14.80;5.65;;;10.00;99.90;;;;;;4964606;28;20047;-73
2023/02/23 11:01:15;;;;;;;14.88;5.90;;;9.90;99.90;;;;;;4962477;28;20039;-72
2023/02/23 11:03:51;;;;;;;13.10;5.95;;;10.00;99.90;;;;;;4995665;28;20086;-73
2023/02/23 11:06:38;;;;;;;13.48;5.05;;;10.10;99.90;;;;;;4963832;28;20066;-72
2023/02/23 11:09:29;;;;;;;10.65;5.05;;;10.10;99.90;;;;;;4962364;28;20031;-73
2023/02/23 11:11:59;;;;;;;13.40;4.97;;;10.00;99.90;;;;;;4961684;28;20046;-72
2023/02/23 11:14:27;;;;;;;6.70;3.03;;;10.00;99.90;;;;;;4961195;28;20047;-74
2023/02/23 11:16:55;;;;;;;11.82;4.32;;;10.00;99.90;;;;;;4960977;28;20056;-72
2023/02/23 11:19:33;;;;;;;12.60;4.15;;;10.00;99.90;;;;;;4972770;28;20057;-72
2023/02/23 11:21:59;;;;;;;10.45;4.60;;;9.90;99.90;;;;;;4961434;28;20035;-73
2023/02/23 11:24:33;;;;;;;10.63;4.05;;;9.80;99.90;;;;;;4963807;28;20034;-73
2023/02/23 11:27:05;;;;;;;10.82;4.28;;;9.80;99.90;;;;;;4964471;28;20078;-74
2023/02/23 11:29:41;;;;;;;15.30;4.95;;;9.70;99.90;;;;;;4964658;28;20070;-72
2023/02/23 11:32:25;;;;;;;12.25;4.88;;;9.70;99.90;;;;;;4960820;28;20058;-76
2023/02/23 11:35:29;;;;;;;14.77;5.53;;;9.60;99.90;;;;;;4959707;28;20035;-73
2023/02/23 11:37:55;;;;;;;12.60;5.10;;;9.60;99.90;;;;;;4963420;28;20101;-72
2023/02/23 11:40:24;;;;;;;11.50;4.57;;;9.50;99.90;;;;;;4961716;28;20043;-72
2023/02/23 11:43:19;;;;;;;9.68;4.78;;;9.40;99.90;;;;;;4963872;28;20121;-73
2023/02/23 11:45:48;;;;;;;13.18;5.32;;;9.40;99.90;;;;;;4950650;28;20411;-73
2023/02/23 11:48:33;;;;;;;14.85;4.78;;;9.40;99.90;;;;;;4964991;28;20476;-73
2023/02/23 11:50:59;;;;;;;11.98;4.50;;;9.40;99.90;;;;;;4964528;28;20043;-73
2023/02/23 11:53:31;;;;;;;10.05;3.97;;;9.50;99.90;;;;;;4963126;28;20053;-72
2023/02/23 11:56:06;;;;;;;13.23;5.35;;;9.50;99.90;;;;;;4963773;28;20043;-74
2023/02/23 11:58:44;;;;;;;12.30;5.28;;;9.60;99.90;;;;;;4969265;28;20046;-73
2023/02/23 12:01:15;;;;;;;12.30;4.90;;;9.70;99.90;;;;;;4962311;28;20049;-73
2023/02/23 12:04:08;;;;;;;15.55;5.85;;;9.80;99.90;;;;;;4971235;28;20038;-73
2023/02/23 12:06:37;;;;;;;14.25;5.47;;;9.80;99.90;;;;;;4961187;28;20047;-73
2023/02/23 12:09:31;;;;;;;12.85;5.32;;;9.80;99.90;;;;;;4967870;28;20034;-72
2023/02/23 12:12:08;;;;;;;18.48;5.88;;;9.90;99.90;;;;;;4961197;28;20057;-72
2023/02/23 12:15:08;;;;;;;17.50;5.95;;;10.00;99.90;;;;;;4962722;28;20034;-72
2023/02/23 12:17:41;;;;;;;17.30;5.97;;;10.00;99.90;;;;;;4986063;28;20039;-73
2023/02/23 12:20:29;;;;;;;22.30;6.10;;;10.00;99.90;;;;;;4966148;28;20284;-73
2023/02/23 12:23:02;;;;;;;15.20;5.68;;;10.10;99.90;;;;;;4984786;28;20036;-73
2023/02/23 12:25:41;;;;;;;15.00;5.30;;;10.10;99.90;;;;;;4983655;28;20094;-73
2023/02/23 12:28:25;;;;;;;13.75;4.55;;;10.00;99.90;;;;;;4986230;28;20022;-73
2023/02/23 12:31:04;;;;;;;12.13;3.63;;;10.00;99.90;;;;;;4993801;28;20043;-73
2023/02/23 12:33:43;;;;;;;11.85;4.90;;;9.90;99.90;;;;;;4946860;28;20059;-73
2023/02/23 12:36:43;;;;;;;11.13;4.10;;;9.90;99.90;;;;;;4967170;28;20050;-72
2023/02/23 12:39:43;;;;;;;19.40;5.95;;;9.90;99.90;;;;;;5003436;28;20039;-74
2023/02/23 12:42:47;;;;;;;12.00;4.45;;;9.90;99.90;;;;;;4963774;28;20066;-73
2023/02/23 12:45:44;;;;;;;10.90;4.47;;;9.80;99.90;;;;;;4964991;28;20508;-72
2023/02/23 12:48:34;;;;;;;13.77;5.03;;;9.80;99.90;;;;;;4984728;28;20129;-73
2023/02/23 12:51:05;;;;;;;12.90;4.35;;;9.80;99.90;;;;;;4987077;28;20696;-73
2023/02/23 12:53:41;;;;;;;12.93;4.72;;;9.80;99.90;;;;;;4967074;28;20710;-74
2023/02/23 12:56:09;;;;;;;13.73;5.10;;;10.00;99.90;;;;;;4986362;28;20034;-72
2023/02/23 12:58:44;;;;;;;12.95;4.60;;;10.10;99.90;;;;;;4985795;28;20475;-73
2023/02/23 13:01:20;;;;;;;14.38;6.00;;;10.30;99.90;;;;;;4970949;28;20085;-72
2023/02/23 13:03:57;;;;;;;11.50;5.38;;;10.40;99.90;;;;;;5001338;28;20042;-72
2023/02/23 13:06:55;;;;;;;17.67;5.82;;;10.50;99.90;;;;;;4986015;28;20053;-75
2023/02/23 13:09:41;;;;;;;11.68;4.97;;;10.50;99.90;;;;;;5000224;28;20410;-74
2023/02/23 13:12:48;;;;;;;13.68;5.07;;;10.50;99.90;;;;;;4988223;28;20892;-73
2023/02/23 13:15:31;;;;;;;17.02;5.90;;;10.50;99.90;;;;;;4910563;29;20075;-74
2023/02/23 13:18:29;;;;;;;11.43;5.15;;;10.40;99.90;;;;;;4916398;29;20044;-72
2023/02/23 13:21:04;;;;;;;15.23;5.32;;;10.40;99.90;;;;;;4973512;28;20502;-72
2023/02/23 13:23:47;;;;;;;16.83;5.68;;;10.30;99.90;;;;;;4985980;28;20035;-72
2023/02/23 13:26:41;;;;;;;18.80;5.68;;;10.20;99.90;;;;;;4983844;28;20131;-74
2023/02/23 13:29:19;;;;;;;15.07;5.43;;;10.20;99.90;;;;;;4968181;28;20038;-72
2023/02/23 13:31:45;;;;;;;13.50;4.70;;;10.20;99.90;;;;;;4987856;28;20394;-72
2023/02/23 13:34:20;;;;;;;12.48;4.95;;;10.10;99.90;;;;;;4986880;28;20074;-73
2023/02/23 13:36:49;;;;;;;12.93;5.45;;;10.10;99.90;;;;;;4969891;28;20041;-73
2023/02/23 13:39:44;;;;;;;13.70;4.78;;;10.10;99.90;;;;;;4987133;28;20042;-74
2023/02/23 13:42:15;;;;;;;12.18;5.43;;;10.10;99.90;;;;;;4983817;28;20108;-72
2023/02/23 13:45:01;;;;;;;11.65;4.95;;;10.10;99.90;;;;;;4984855;28;20042;-72
2023/02/23 13:47:27;;;;;;;16.98;5.57;;;10.10;99.90;;;;;;4985344;28;20113;-73
2023/02/23 13:50:14;;;;;;;15.23;5.35;;;10.00;99.90;;;;;;4988407;28;20450;-73
2023/02/23 13:52:43;;;;;;;14.65;5.13;;;10.00;99.90;;;;;;4984528;28;20097;-72
2023/02/23 13:55:27;;;;;;;15.32;4.00;;;9.90;99.90;;;;;;4985787;28;20113;-73
2023/02/23 13:58:01;;;;;;;11.90;4.90;;;9.90;99.90;;;;;;4987172;28;20037;-74
2023/02/23 14:00:28;;;;;;;13.55;4.72;;;9.90;99.90;;;;;;4986491;28;20069;-74
2023/02/23 14:02:54;;;;;;;11.68;4.20;;;9.90;99.90;;;;;;4967672;28;20371;-73
2023/02/23 14:05:24;;;;;;;12.77;4.47;;;9.90;99.90;;;;;;4984922;28;20030;-72
2023/02/23 14:08:01;;;;;;;12.10;4.13;;;9.90;99.90;;;;;;4986226;28;20045;-72
2023/02/23 14:10:34;;;;;;;10.40;3.50;;;10.00;99.90;;;;;;4985445;28;20514;-74
2023/02/23 14:13:12;;;;;;;15.57;4.38;;;10.00;99.90;;;;;;4986537;28;20121;-73
2023/02/23 14:15:37;;;;;;;11.18;4.30;;;10.10;99.90;;;;;;4981801;28;20038;-73
2023/02/23 14:18:28;;;;;;;9.25;3.80;;;10.20;99.90;;;;;;4985053;28;20101;-73
2023/02/23 14:21:15;;;;;;;14.25;4.10;;;10.20;99.90;;;;;;4985233;28;20477;-72
2023/02/23 14:23:41;;;;;;;8.98;4.05;;;10.10;99.90;;;;;;4998372;28;20541;-72